createdAt,value
2017-04-06T00:01:10.885Z,1012.35
2017-04-06T00:02:10.818Z,1012.45
2017-04-06T00:03:10.755Z,1012.38
2017-04-06T00:04:10.692Z,1012.34
2017-04-06T00:05:10.630Z,1012.39
2017-04-06T00:06:10.568Z,1012.34
2017-04-06T00:07:10.576Z,1012.36
2017-04-06T00:08:10.441Z,1012.4
2017-04-06T00:09:10.379Z,1012.43
2017-04-06T00:10:10.316Z,1012.42
2017-04-06T00:11:10.254Z,1012.42
2017-04-06T00:12:10.191Z,1012.32
2017-04-06T00:13:10.129Z,1012.37
2017-04-06T00:14:10.066Z,1012.41
2017-04-06T00:15:10.003Z,1012.36
2017-04-06T00:16:09.940Z,1012.33
2017-04-06T00:17:09.878Z,1012.35
2017-04-06T00:18:09.816Z,1012.34
2017-04-06T00:19:09.752Z,1012.35
2017-04-06T00:20:09.690Z,1012.43
2017-04-06T00:21:09.628Z,1012.45
2017-04-06T00:22:09.565Z,1012.43
2017-04-06T00:23:09.502Z,1012.36
2017-04-06T00:24:09.443Z,1012.38
2017-04-06T00:25:09.377Z,1012.36
2017-04-06T00:26:09.313Z,1012.38
2017-04-06T00:27:09.252Z,1012.4
2017-04-06T00:28:09.189Z,1012.37
2017-04-06T00:29:09.127Z,1012.37
2017-04-06T00:30:09.064Z,1012.35
2017-04-06T00:31:09.002Z,1012.32
2017-04-06T00:32:08.939Z,1012.34
2017-04-06T00:33:08.875Z,1012.34
2017-04-06T00:34:08.813Z,1012.31
2017-04-06T00:35:08.751Z,1012.33
2017-04-06T00:36:08.688Z,1012.32
2017-04-06T00:37:08.625Z,1012.34
2017-04-06T00:38:08.562Z,1012.33
2017-04-06T00:39:08.500Z,1012.34
2017-04-06T00:40:08.475Z,1012.36
2017-04-06T00:41:08.375Z,1012.31
2017-04-06T00:42:08.312Z,1012.29
2017-04-06T00:43:08.250Z,1012.24
2017-04-06T00:44:08.187Z,1012.23
2017-04-06T00:45:08.124Z,1012.24
2017-04-06T00:46:08.062Z,1012.22
2017-04-06T00:47:08.000Z,1012.26
2017-04-06T00:48:07.937Z,1012.2
2017-04-06T00:49:07.874Z,1012.24
2017-04-06T00:50:07.812Z,1012.21
2017-04-06T00:51:07.750Z,1012.22
2017-04-06T00:52:07.687Z,1012.37
2017-04-06T00:53:07.623Z,1012.32
2017-04-06T00:54:07.561Z,1012.32
2017-04-06T00:55:07.498Z,1012.29
2017-04-06T00:56:07.436Z,1012.34
2017-04-06T00:57:07.373Z,1012.34
2017-04-06T00:58:07.311Z,1012.41
2017-04-06T00:59:07.247Z,1012.35
2017-04-06T01:00:07.185Z,1012.36
2017-04-06T01:01:07.123Z,1012.38
2017-04-06T01:02:07.061Z,1012.36
2017-04-06T01:03:06.997Z,1012.38
2017-04-06T01:04:06.934Z,1012.37
2017-04-06T01:05:06.873Z,1012.37
2017-04-06T01:06:06.808Z,1012.35
2017-04-06T01:07:06.747Z,1012.36
2017-04-06T01:08:06.683Z,1012.41
2017-04-06T01:09:06.622Z,1012.43
2017-04-06T01:10:06.558Z,1012.39
2017-04-06T01:11:06.496Z,1012.42
2017-04-06T01:12:06.434Z,1012.35
2017-04-06T01:13:06.523Z,1012.34
2017-04-06T01:14:06.308Z,1012.31
2017-04-06T01:15:06.246Z,1012.35
2017-04-06T01:16:06.183Z,1012.37
2017-04-06T01:17:06.120Z,1012.39
2017-04-06T01:18:06.057Z,1012.38
2017-04-06T01:19:05.997Z,1012.35
2017-04-06T01:20:05.932Z,1012.33
2017-04-06T01:21:05.869Z,1012.37
2017-04-06T01:22:05.806Z,1012.39
2017-04-06T01:23:05.745Z,1012.4
2017-04-06T01:24:05.682Z,1012.4
2017-04-06T01:25:05.619Z,1012.4
2017-04-06T01:26:05.557Z,1012.43
2017-04-06T01:27:05.494Z,1012.42
2017-04-06T01:28:05.431Z,1012.35
2017-04-06T01:29:05.369Z,1012.4
2017-04-06T01:30:05.307Z,1012.43
2017-04-06T01:31:05.244Z,1012.41
2017-04-06T01:32:05.180Z,1012.4
2017-04-06T01:33:05.120Z,1012.4
2017-04-06T01:34:05.081Z,1012.45
2017-04-06T01:35:04.995Z,1012.46
2017-04-06T01:36:04.930Z,1012.48
2017-04-06T01:37:04.870Z,1012.51
2017-04-06T01:38:04.806Z,1012.53
2017-04-06T01:39:04.744Z,1012.46
2017-04-06T01:40:04.681Z,1012.43
2017-04-06T01:41:04.619Z,1012.5
2017-04-06T01:42:04.557Z,1012.48
2017-04-06T01:43:04.492Z,1012.48
2017-04-06T01:44:04.431Z,1012.45
2017-04-06T01:45:04.368Z,1012.48
2017-04-06T01:46:04.305Z,1012.47
2017-04-06T01:47:04.244Z,1012.47
2017-04-06T01:48:04.180Z,1012.43
2017-04-06T01:49:04.117Z,1012.45
2017-04-06T01:50:04.055Z,1012.44
2017-04-06T01:51:03.993Z,1012.4
2017-04-06T01:52:03.929Z,1012.43
2017-04-06T01:53:03.867Z,1012.37
2017-04-06T01:54:03.804Z,1012.35
2017-04-06T01:55:03.741Z,1012.44
2017-04-06T01:56:03.680Z,1012.42
2017-04-06T01:57:03.616Z,1012.45
2017-04-06T01:58:03.553Z,1012.5
2017-04-06T01:59:03.491Z,1012.52
2017-04-06T02:00:03.429Z,1012.53
2017-04-06T02:01:03.365Z,1012.5
2017-04-06T02:02:03.302Z,1012.48
2017-04-06T02:03:03.240Z,1012.49
2017-04-06T02:04:03.184Z,1012.49
2017-04-06T02:05:03.115Z,1012.5
2017-04-06T02:06:03.053Z,1012.52
2017-04-06T02:07:02.991Z,1012.51
2017-04-06T02:08:02.928Z,1012.52
2017-04-06T02:09:02.865Z,1012.51
2017-04-06T02:10:02.804Z,1012.61
2017-04-06T02:11:02.741Z,1012.64
2017-04-06T02:12:02.677Z,1012.59
2017-04-06T02:13:02.615Z,1012.64
2017-04-06T02:14:02.553Z,1012.65
2017-04-06T02:15:02.489Z,1012.68
2017-04-06T02:16:02.437Z,1012.64
2017-04-06T02:17:02.366Z,1012.73
2017-04-06T02:18:02.301Z,1012.67
2017-04-06T02:19:02.238Z,1012.69
2017-04-06T02:20:02.177Z,1012.71
2017-04-06T02:21:02.114Z,1012.66
2017-04-06T02:22:02.055Z,1012.67
2017-04-06T02:23:01.988Z,1012.69
2017-04-06T02:24:01.925Z,1012.67
2017-04-06T02:25:01.869Z,1012.7
2017-04-06T02:26:01.800Z,1012.67
2017-04-06T02:27:01.739Z,1012.71
2017-04-06T02:28:01.675Z,1012.71
2017-04-06T02:29:01.614Z,1012.7
2017-04-06T02:30:01.551Z,1012.67
2017-04-06T02:31:01.494Z,1012.69
2017-04-06T02:32:01.425Z,1012.65
2017-04-06T02:33:01.363Z,1012.65
2017-04-06T02:34:01.301Z,1012.67
2017-04-06T02:35:01.245Z,1012.73
2017-04-06T02:36:01.183Z,1012.67
2017-04-06T02:37:01.113Z,1012.74
2017-04-06T02:38:01.047Z,1012.77
2017-04-06T02:39:00.986Z,1012.75
2017-04-06T02:40:00.924Z,1012.75
2017-04-06T02:41:00.860Z,1012.79
2017-04-06T02:42:00.798Z,1012.76
2017-04-06T02:43:00.735Z,1012.8
2017-04-06T02:44:00.673Z,1012.8
2017-04-06T02:45:00.609Z,1012.78
2017-04-06T02:46:00.548Z,1012.83
2017-04-06T02:47:00.485Z,1012.84
2017-04-06T02:48:00.424Z,1012.83
2017-04-06T02:49:00.360Z,1012.84
2017-04-06T02:50:00.297Z,1012.83
2017-04-06T02:51:00.235Z,1012.84
2017-04-06T02:52:00.171Z,1012.89
2017-04-06T02:53:00.109Z,1012.8
2017-04-06T02:54:00.046Z,1012.82
2017-04-06T02:54:59.985Z,1012.83
2017-04-06T02:55:59.921Z,1012.89
2017-04-06T02:56:59.859Z,1012.88
2017-04-06T02:57:59.797Z,1012.92
2017-04-06T02:58:59.734Z,1012.85
2017-04-06T02:59:59.670Z,1012.81
2017-04-06T03:00:59.609Z,1012.82
2017-04-06T03:01:59.550Z,1012.81
2017-04-06T03:02:59.482Z,1012.87
2017-04-06T03:03:59.419Z,1012.85
2017-04-06T03:04:59.357Z,1012.86
2017-04-06T03:05:59.295Z,1012.87
2017-04-06T03:06:59.232Z,1012.91
2017-04-06T03:07:59.169Z,1012.88
2017-04-06T03:08:59.108Z,1012.93
2017-04-06T03:09:59.045Z,1012.88
2017-04-06T03:10:58.982Z,1012.88
2017-04-06T03:11:58.919Z,1012.96
2017-04-06T03:12:58.857Z,1012.98
2017-04-06T03:13:58.814Z,1012.94
2017-04-06T03:14:58.732Z,1012.95
2017-04-06T03:15:58.670Z,1012.95
2017-04-06T03:16:58.607Z,1012.98
2017-04-06T03:17:58.546Z,1012.96
2017-04-06T03:18:58.481Z,1013.05
2017-04-06T03:19:58.418Z,1013.03
2017-04-06T03:20:58.355Z,1013
2017-04-06T03:21:58.293Z,1012.98
2017-04-06T03:22:58.231Z,1013.02
2017-04-06T03:23:58.168Z,1013.08
2017-04-06T03:24:58.105Z,1013.07
2017-04-06T03:25:58.043Z,1013.07
2017-04-06T03:26:57.980Z,1013.1
2017-04-06T03:27:57.920Z,1013.08
2017-04-06T03:28:57.855Z,1013.05
2017-04-06T03:29:57.791Z,1013.06
2017-04-06T03:30:57.730Z,1013.07
2017-04-06T03:31:57.695Z,1013.11
2017-04-06T03:32:57.603Z,1013.06
2017-04-06T03:33:57.541Z,1013.06
2017-04-06T03:34:57.479Z,1013.06
2017-04-06T03:35:57.415Z,1013.08
2017-04-06T03:36:57.353Z,1013.07
2017-04-06T03:37:57.290Z,1013.07
2017-04-06T03:38:57.228Z,1013.07
2017-04-06T03:39:57.165Z,1013.14
2017-04-06T03:40:57.102Z,1013.18
2017-04-06T03:41:57.040Z,1013.2
2017-04-06T03:42:56.980Z,1013.25
2017-04-06T03:43:56.914Z,1013.23
2017-04-06T03:44:56.853Z,1013.23
2017-04-06T03:45:56.790Z,1013.2
2017-04-06T03:46:56.727Z,1013.27
2017-04-06T03:47:56.664Z,1013.23
2017-04-06T03:48:56.601Z,1013.25
2017-04-06T03:49:56.539Z,1013.29
2017-04-06T03:50:56.476Z,1013.28
2017-04-06T03:51:56.413Z,1013.27
2017-04-06T03:52:56.351Z,1013.3
2017-04-06T03:53:56.287Z,1013.31
2017-04-06T03:54:56.225Z,1013.34
2017-04-06T03:55:56.162Z,1013.33
2017-04-06T03:56:56.100Z,1013.37
2017-04-06T03:57:56.036Z,1013.38
2017-04-06T03:58:55.973Z,1013.4
2017-04-06T03:59:55.915Z,1013.4
2017-04-06T04:00:55.850Z,1013.43
2017-04-06T04:01:55.787Z,1013.4
2017-04-06T04:02:55.724Z,1013.61
2017-04-06T04:03:55.662Z,1013.57
2017-04-06T04:04:55.599Z,1013.46
2017-04-06T04:05:55.536Z,1013.51
2017-04-06T04:06:55.474Z,1013.53
2017-04-06T04:07:55.411Z,1013.49
2017-04-06T04:08:55.348Z,1013.48
2017-04-06T04:09:55.286Z,1013.48
2017-04-06T04:10:55.224Z,1013.48
2017-04-06T04:11:55.161Z,1013.53
2017-04-06T04:12:55.097Z,1013.52
2017-04-06T04:13:55.035Z,1013.54
2017-04-06T04:14:54.973Z,1013.53
2017-04-06T04:15:54.909Z,1013.57
2017-04-06T04:16:54.846Z,1013.56
2017-04-06T04:17:54.785Z,1013.5
2017-04-06T04:18:54.722Z,1013.59
2017-04-06T04:19:54.659Z,1013.58
2017-04-06T04:20:54.596Z,1013.57
2017-04-06T04:21:54.536Z,1013.59
2017-04-06T04:22:54.471Z,1013.56
2017-04-06T04:23:54.408Z,1013.54
2017-04-06T04:24:54.346Z,1013.59
2017-04-06T04:25:54.286Z,1013.58
2017-04-06T04:26:54.220Z,1013.6
2017-04-06T04:27:54.158Z,1013.64
2017-04-06T04:28:54.096Z,1013.58
2017-04-06T04:29:54.033Z,1013.56
2017-04-06T04:30:53.970Z,1013.57
2017-04-06T04:31:53.907Z,1013.61
2017-04-06T04:32:53.845Z,1013.58
2017-04-06T04:33:53.784Z,1013.55
2017-04-06T04:34:53.719Z,1013.6
2017-04-06T04:35:53.657Z,1013.67
2017-04-06T04:36:53.595Z,1013.66
2017-04-06T04:37:53.531Z,1013.66
2017-04-06T04:38:53.469Z,1013.65
2017-04-06T04:39:53.414Z,1013.69
2017-04-06T04:40:53.345Z,1013.75
2017-04-06T04:41:53.282Z,1013.71
2017-04-06T04:42:53.218Z,1013.74
2017-04-06T04:43:53.155Z,1013.7
2017-04-06T04:44:53.094Z,1013.7
2017-04-06T04:45:53.031Z,1013.69
2017-04-06T04:46:52.969Z,1013.69
2017-04-06T04:47:52.907Z,1013.78
2017-04-06T04:48:52.843Z,1013.75
2017-04-06T04:49:52.781Z,1013.82
2017-04-06T04:50:52.719Z,1013.83
2017-04-06T04:51:52.657Z,1013.83
2017-04-06T04:52:52.593Z,1013.89
2017-04-06T04:53:52.531Z,1013.85
2017-04-06T04:54:52.468Z,1013.95
2017-04-06T04:55:52.404Z,1013.93
2017-04-06T04:56:52.342Z,1013.97
2017-04-06T04:57:52.279Z,1014.02
2017-04-06T04:58:52.217Z,1014.01
2017-04-06T04:59:52.154Z,1014.03
2017-04-06T05:00:52.091Z,1014.04
2017-04-06T05:01:52.033Z,1014
2017-04-06T05:02:51.967Z,1014.02
2017-04-06T05:03:51.903Z,1014.06
2017-04-06T05:04:51.841Z,1014.05
2017-04-06T05:05:51.779Z,1014.07
2017-04-06T05:06:51.715Z,1014.1
2017-04-06T05:07:51.658Z,1014.16
2017-04-06T05:08:51.590Z,1014.14
2017-04-06T05:09:51.528Z,1014.16
2017-04-06T05:10:51.465Z,1014.16
2017-04-06T05:11:51.404Z,1014.15
2017-04-06T05:12:51.339Z,1014.15
2017-04-06T05:13:51.277Z,1014.17
2017-04-06T05:14:51.214Z,1014.11
2017-04-06T05:15:51.151Z,1014.18
2017-04-06T05:16:51.089Z,1014.2
2017-04-06T05:17:51.026Z,1014.2
2017-04-06T05:18:50.965Z,1014.23
2017-04-06T05:19:50.904Z,1014.24
2017-04-06T05:20:50.838Z,1014.11
2017-04-06T05:21:50.775Z,1014.19
2017-04-06T05:22:50.713Z,1014.19
2017-04-06T05:23:50.650Z,1014.15
2017-04-06T05:24:50.589Z,1014.52
2017-04-06T05:25:50.525Z,1014.42
2017-04-06T05:26:50.462Z,1014.39
2017-04-06T05:27:50.400Z,1014.24
2017-04-06T05:28:50.336Z,1014.17
2017-04-06T05:29:50.274Z,1014.2
2017-04-06T05:30:50.213Z,1014.23
2017-04-06T05:31:50.149Z,1014.18
2017-04-06T05:32:50.085Z,1014.18
2017-04-06T05:33:50.022Z,1014.2
2017-04-06T05:34:49.961Z,1014.17
2017-04-06T05:35:49.898Z,1014.23
2017-04-06T05:36:49.836Z,1014.2
2017-04-06T05:37:49.774Z,1014.16
2017-04-06T05:38:49.710Z,1014.16
2017-04-06T05:39:49.647Z,1014.23
2017-04-06T05:40:49.586Z,1014.21
2017-04-06T05:41:49.522Z,1014.25
2017-04-06T05:42:49.460Z,1014.24
2017-04-06T05:43:49.397Z,1014.24
2017-04-06T05:44:49.334Z,1014.28
2017-04-06T05:45:49.271Z,1014.27
2017-04-06T05:46:49.210Z,1014.28
2017-04-06T05:47:49.146Z,1014.28
2017-04-06T05:48:49.083Z,1014.2
2017-04-06T05:49:49.021Z,1014.24
2017-04-06T05:50:48.957Z,1014.28
2017-04-06T05:51:48.897Z,1014.31
2017-04-06T05:52:48.835Z,1014.35
2017-04-06T05:53:48.770Z,1014.36
2017-04-06T05:54:48.707Z,1014.34
2017-04-06T05:55:48.645Z,1014.37
2017-04-06T05:56:48.582Z,1014.41
2017-04-06T05:57:48.519Z,1014.38
2017-04-06T05:58:48.456Z,1014.42
2017-04-06T05:59:48.394Z,1014.43
2017-04-06T06:00:48.332Z,1014.39
2017-04-06T06:01:48.268Z,1014.39
2017-04-06T06:02:48.206Z,1014.48
2017-04-06T06:03:48.143Z,1014.47
2017-04-06T06:04:48.081Z,1014.5
2017-04-06T06:05:48.018Z,1014.47
2017-04-06T06:06:47.955Z,1014.49
2017-04-06T06:07:47.892Z,1014.49
2017-04-06T06:08:47.832Z,1014.5
2017-04-06T06:09:47.767Z,1014.54
2017-04-06T06:10:47.706Z,1014.56
2017-04-06T06:11:47.642Z,1014.55
2017-04-06T06:12:47.579Z,1014.59
2017-04-06T06:13:47.517Z,1014.63
2017-04-06T06:14:47.454Z,1014.7
2017-04-06T06:15:47.390Z,1014.7
2017-04-06T06:16:47.328Z,1014.66
2017-04-06T06:17:47.266Z,1014.67
2017-04-06T06:18:47.203Z,1014.64
2017-04-06T06:19:47.140Z,1014.68
2017-04-06T06:20:47.078Z,1014.75
2017-04-06T06:21:47.015Z,1014.73
2017-04-06T06:22:46.953Z,1014.81
2017-04-06T06:23:46.890Z,1014.83
2017-04-06T06:24:46.827Z,1014.82
2017-04-06T06:25:46.777Z,1014.76
2017-04-06T06:26:46.702Z,1014.79
2017-04-06T06:27:46.638Z,1014.81
2017-04-06T06:28:46.577Z,1014.89
2017-04-06T06:29:46.515Z,1014.81
2017-04-06T06:30:46.451Z,1014.84
2017-04-06T06:31:46.389Z,1014.84
2017-04-06T06:32:46.326Z,1014.91
2017-04-06T06:33:46.264Z,1014.9
2017-04-06T06:34:46.200Z,1014.96
2017-04-06T06:35:46.138Z,1014.95
2017-04-06T06:36:46.077Z,1014.88
2017-04-06T06:37:46.025Z,1014.96
2017-04-06T06:38:45.950Z,1014.96
2017-04-06T06:39:45.887Z,1014.88
2017-04-06T06:40:45.825Z,1014.96
2017-04-06T06:41:45.761Z,1014.97
2017-04-06T06:42:45.699Z,1014.93
2017-04-06T06:43:45.637Z,1014.93
2017-04-06T06:44:45.574Z,1014.95
2017-04-06T06:45:45.511Z,1014.92
2017-04-06T06:46:45.448Z,1014.93
2017-04-06T06:47:45.386Z,1014.97
2017-04-06T06:48:45.324Z,1015.02
2017-04-06T06:49:45.260Z,1015.06
2017-04-06T06:50:45.202Z,1015.04
2017-04-06T06:51:45.144Z,1015
2017-04-06T06:52:45.071Z,1014.99
2017-04-06T06:53:45.009Z,1015.01
2017-04-06T06:54:44.948Z,1015.03
2017-04-06T06:55:44.885Z,1015.03
2017-04-06T06:56:44.824Z,1015
2017-04-06T06:57:44.759Z,1015.01
2017-04-06T06:58:44.696Z,1015
2017-04-06T06:59:44.634Z,1015.07
2017-04-06T07:00:44.570Z,1015.03
2017-04-06T07:01:44.508Z,1015.03
2017-04-06T07:02:44.445Z,1015.01
2017-04-06T07:03:44.387Z,1015.03
2017-04-06T07:04:44.319Z,1015.02
2017-04-06T07:05:44.257Z,1015.02
2017-04-06T07:06:44.195Z,1015.09
2017-04-06T07:07:44.131Z,1015.11
2017-04-06T07:08:44.068Z,1015.08
2017-04-06T07:09:44.007Z,1015.05
2017-04-06T07:10:43.944Z,1015.09
2017-04-06T07:11:43.881Z,1015.08
2017-04-06T07:12:43.823Z,1015.16
2017-04-06T07:13:43.755Z,1015.16
2017-04-06T07:14:43.693Z,1015.19
2017-04-06T07:15:43.630Z,1015.16
2017-04-06T07:16:43.568Z,1015.23
2017-04-06T07:17:43.510Z,1015.22
2017-04-06T07:18:43.441Z,1015.24
2017-04-06T07:19:43.379Z,1015.23
2017-04-06T07:20:43.317Z,1015.23
2017-04-06T07:21:43.255Z,1015.21
2017-04-06T07:22:43.192Z,1015.31
2017-04-06T07:23:43.129Z,1015.31
2017-04-06T07:24:43.067Z,1015.31
2017-04-06T07:25:43.004Z,1015.29
2017-04-06T07:26:42.942Z,1015.34
2017-04-06T07:27:42.880Z,1015.36
2017-04-06T07:28:42.817Z,1015.34
2017-04-06T07:29:42.754Z,1015.41
2017-04-06T07:30:42.692Z,1015.45
2017-04-06T07:31:42.629Z,1015.37
2017-04-06T07:32:42.567Z,1015.43
2017-04-06T07:33:42.503Z,1015.42
2017-04-06T07:34:42.441Z,1015.38
2017-04-06T07:35:42.379Z,1015.39
2017-04-06T07:36:42.316Z,1015.43
2017-04-06T07:37:42.253Z,1015.44
2017-04-06T07:38:42.192Z,1015.4
2017-04-06T07:39:42.130Z,1015.46
2017-04-06T07:40:42.067Z,1015.42
2017-04-06T07:41:42.004Z,1015.39
2017-04-06T07:42:41.942Z,1015.36
2017-04-06T07:43:41.880Z,1015.36
2017-04-06T07:44:41.817Z,1015.4
2017-04-06T07:45:41.755Z,1015.42
2017-04-06T07:46:41.694Z,1015.41
2017-04-06T07:47:41.630Z,1015.41
2017-04-06T07:48:41.568Z,1015.41
2017-04-06T07:49:41.506Z,1015.46
2017-04-06T07:50:41.442Z,1015.48
2017-04-06T07:51:41.381Z,1015.45
2017-04-06T07:52:41.319Z,1015.44
2017-04-06T07:53:41.256Z,1015.44
2017-04-06T07:54:41.195Z,1015.51
2017-04-06T07:55:41.133Z,1015.54
2017-04-06T07:56:41.073Z,1015.5
2017-04-06T07:57:41.009Z,1015.46
2017-04-06T07:58:40.945Z,1015.51
2017-04-06T07:59:40.886Z,1015.5
2017-04-06T08:00:40.821Z,1015.48
2017-04-06T08:01:40.760Z,1015.49
2017-04-06T08:02:40.700Z,1015.49
2017-04-06T08:03:40.635Z,1015.6
2017-04-06T08:04:40.572Z,1015.59
2017-04-06T08:05:40.510Z,1015.53
2017-04-06T08:06:40.449Z,1015.48
2017-04-06T08:07:40.386Z,1015.56
2017-04-06T08:08:40.324Z,1015.57
2017-04-06T08:09:40.261Z,1015.61
2017-04-06T08:10:40.200Z,1015.59
2017-04-06T08:11:40.145Z,1015.57
2017-04-06T08:12:40.075Z,1015.55
2017-04-06T08:13:40.012Z,1015.59
2017-04-06T08:14:39.952Z,1015.62
2017-04-06T08:15:39.889Z,1015.63
2017-04-06T08:16:39.826Z,1015.63
2017-04-06T08:17:39.766Z,1015.6
2017-04-06T08:18:39.702Z,1015.63
2017-04-06T08:19:39.641Z,1015.64
2017-04-06T08:20:39.577Z,1015.64
2017-04-06T08:21:39.515Z,1015.68
2017-04-06T08:22:39.453Z,1015.67
2017-04-06T08:23:39.392Z,1015.7
2017-04-06T08:24:39.328Z,1015.71
2017-04-06T08:25:39.266Z,1015.78
2017-04-06T08:26:39.205Z,1015.72
2017-04-06T08:27:39.142Z,1015.71
2017-04-06T08:28:39.080Z,1015.71
2017-04-06T08:29:39.272Z,1015.71
2017-04-06T08:30:38.956Z,1015.77
2017-04-06T08:31:38.895Z,1015.8
2017-04-06T08:32:38.831Z,1015.82
2017-04-06T08:33:38.770Z,1015.79
2017-04-06T08:34:38.709Z,1015.79
2017-04-06T08:35:38.646Z,1015.77
2017-04-06T08:36:38.584Z,1015.79
2017-04-06T08:37:38.521Z,1015.8
2017-04-06T08:38:38.460Z,1015.81
2017-04-06T08:39:38.398Z,1015.79
2017-04-06T08:40:38.335Z,1015.86
2017-04-06T08:41:38.334Z,1015.96
2017-04-06T08:42:38.211Z,1015.91
2017-04-06T08:43:38.148Z,1015.92
2017-04-06T08:44:38.088Z,1015.96
2017-04-06T08:45:38.175Z,1015.93
2017-04-06T08:46:37.962Z,1015.99
2017-04-06T08:47:37.900Z,1016.02
2017-04-06T08:48:37.839Z,1016.02
2017-04-06T08:49:37.780Z,1016.02
2017-04-06T08:50:37.870Z,1015.98
2017-04-06T08:51:37.653Z,1016
2017-04-06T08:52:37.591Z,1016.03
2017-04-06T08:53:37.528Z,1015.97
2017-04-06T08:54:37.466Z,1016.01
2017-04-06T08:55:37.405Z,1016.02
2017-04-06T08:56:37.343Z,1016.09
2017-04-06T08:57:37.307Z,1016.16
2017-04-06T08:58:37.218Z,1016.16
2017-04-06T08:59:37.160Z,1016.2
2017-04-06T09:00:37.155Z,1016.24
2017-04-06T09:01:37.037Z,1016.22
2017-04-06T09:02:36.971Z,1016.16
2017-04-06T09:03:36.910Z,1016.19
2017-04-06T09:04:36.847Z,1016.18
2017-04-06T09:05:36.785Z,1016.16
2017-04-06T09:06:36.723Z,1016.17
2017-04-06T09:07:36.663Z,1016.14
2017-04-06T09:08:36.599Z,1016.12
2017-04-06T09:09:36.538Z,1016.13
2017-04-06T09:10:36.486Z,1016.16
2017-04-06T09:11:36.413Z,1016.18
2017-04-06T09:12:36.352Z,1016.23
2017-04-06T09:13:36.291Z,1016.29
2017-04-06T09:14:36.235Z,1016.22
2017-04-06T09:15:36.166Z,1016.22
2017-04-06T09:16:36.105Z,1016.26
2017-04-06T09:17:36.043Z,1016.27
2017-04-06T09:18:35.991Z,1016.27
2017-04-06T09:19:35.929Z,1016.38
2017-04-06T09:20:36.208Z,1016.31
2017-04-06T09:21:35.796Z,1016.26
2017-04-06T09:22:35.733Z,1016.34
2017-04-06T09:23:35.671Z,1016.29
2017-04-06T09:24:35.609Z,1016.31
2017-04-06T09:25:36.151Z,1016.35
2017-04-06T09:26:35.486Z,1016.37
2017-04-06T09:27:35.424Z,1016.39
2017-04-06T09:28:35.363Z,1016.37
2017-04-06T09:29:35.301Z,1016.36
2017-04-06T09:30:35.238Z,1016.47
2017-04-06T09:31:35.177Z,1016.44
2017-04-06T09:32:35.116Z,1016.45
2017-04-06T09:33:35.053Z,1016.42
2017-04-06T09:34:34.991Z,1016.44
2017-04-06T09:35:34.930Z,1016.42
2017-04-06T09:36:34.869Z,1016.49
2017-04-06T09:37:34.805Z,1016.5
2017-04-06T09:38:34.744Z,1016.53
2017-04-06T09:39:34.682Z,1016.45
2017-04-06T09:40:34.618Z,1016.4
2017-04-06T09:41:34.558Z,1016.49
2017-04-06T09:42:34.496Z,1016.54
2017-04-06T09:43:34.433Z,1016.53
2017-04-06T09:44:34.372Z,1016.4
2017-04-06T09:45:34.310Z,1016.36
2017-04-06T09:46:34.249Z,1016.34
2017-04-06T09:47:34.187Z,1016.32
2017-04-06T09:48:34.125Z,1016.35
2017-04-06T09:49:34.062Z,1016.29
2017-04-06T09:50:34.002Z,1016.28
2017-04-06T09:51:33.939Z,1016.28
2017-04-06T09:52:33.881Z,1016.32
2017-04-06T09:53:33.815Z,1016.29
2017-04-06T09:54:33.753Z,1016.33
2017-04-06T09:55:33.691Z,1016.27
2017-04-06T09:56:33.629Z,1016.25
2017-04-06T09:57:33.569Z,1016.28
2017-04-06T09:58:33.506Z,1016.3
2017-04-06T09:59:33.444Z,1016.34
2017-04-06T10:00:33.383Z,1016.39
2017-04-06T10:01:33.321Z,1016.34
2017-04-06T10:02:33.258Z,1016.3
2017-04-06T10:03:33.199Z,1016.37
2017-04-06T10:04:33.141Z,1016.37
2017-04-06T10:05:33.087Z,1016.35
2017-04-06T10:06:33.021Z,1016.23
2017-04-06T10:07:32.950Z,1016.29
2017-04-06T10:08:32.888Z,1016.36
2017-04-06T10:09:32.826Z,1016.37
2017-04-06T10:10:32.764Z,1016.36
2017-04-06T10:11:32.703Z,1016.34
2017-04-06T10:12:32.641Z,1016.31
2017-04-06T10:13:32.577Z,1016.29
2017-04-06T10:14:32.518Z,1016.28
2017-04-06T10:15:32.456Z,1016.32
2017-04-06T10:16:32.394Z,1016.3
2017-04-06T10:17:32.332Z,1016.31
2017-04-06T10:18:32.271Z,1016.35
2017-04-06T10:19:32.209Z,1016.35
2017-04-06T10:20:32.147Z,1016.43
2017-04-06T10:21:32.122Z,1016.29
2017-04-06T10:22:32.021Z,1016.46
2017-04-06T10:23:31.962Z,1016.41
2017-04-06T10:24:31.899Z,1016.43
2017-04-06T10:25:31.839Z,1016.42
2017-04-06T10:26:31.777Z,1016.49
2017-04-06T10:27:31.715Z,1016.47
2017-04-06T10:28:31.652Z,1016.51
2017-04-06T10:29:31.591Z,1016.46
2017-04-06T10:30:31.528Z,1016.44
2017-04-06T10:31:31.469Z,1016.4
2017-04-06T10:32:31.407Z,1016.47
2017-04-06T10:33:31.344Z,1016.5
2017-04-06T10:34:31.282Z,1016.58
2017-04-06T10:35:31.222Z,1016.54
2017-04-06T10:36:31.158Z,1016.45
2017-04-06T10:37:31.097Z,1016.46
2017-04-06T10:38:31.037Z,1016.4
2017-04-06T10:39:30.975Z,1016.42
2017-04-06T10:40:30.913Z,1016.41
2017-04-06T10:41:30.852Z,1016.41
2017-04-06T10:42:30.791Z,1016.42
2017-04-06T10:43:30.727Z,1016.51
2017-04-06T10:44:30.667Z,1016.51
2017-04-06T10:45:30.605Z,1016.47
2017-04-06T10:46:30.542Z,1016.46
2017-04-06T10:47:30.482Z,1016.42
2017-04-06T10:48:30.420Z,1016.54
2017-04-06T10:49:30.358Z,1016.46
2017-04-06T10:50:30.296Z,1016.43
2017-04-06T10:51:30.235Z,1016.47
2017-04-06T10:52:30.172Z,1016.47
2017-04-06T10:53:30.112Z,1016.53
2017-04-06T10:54:30.049Z,1016.44
2017-04-06T10:55:29.987Z,1016.5
2017-04-06T10:56:29.926Z,1016.54
2017-04-06T10:57:29.865Z,1016.53
2017-04-06T10:58:29.803Z,1016.53
2017-04-06T10:59:29.741Z,1016.5
2017-04-06T11:00:29.680Z,1016.53
2017-04-06T11:01:29.619Z,1016.5
2017-04-06T11:02:29.564Z,1016.53
2017-04-06T11:03:29.495Z,1016.58
2017-04-06T11:04:29.461Z,1016.56
2017-04-06T11:05:29.372Z,1016.58
2017-04-06T11:06:29.310Z,1016.5
2017-04-06T11:07:29.249Z,1016.49
2017-04-06T11:08:29.186Z,1016.49
2017-04-06T11:09:29.125Z,1016.41
2017-04-06T11:10:29.064Z,1016.51
2017-04-06T11:11:29.000Z,1016.45
2017-04-06T11:12:28.938Z,1016.51
2017-04-06T11:13:28.876Z,1016.53
2017-04-06T11:14:28.815Z,1016.54
2017-04-06T11:15:28.752Z,1016.51
2017-04-06T11:16:28.690Z,1016.48
2017-04-06T11:17:28.631Z,1016.46
2017-04-06T11:18:28.569Z,1016.47
2017-04-06T11:19:28.507Z,1016.56
2017-04-06T11:20:28.447Z,1016.59
2017-04-06T11:21:28.383Z,1016.54
2017-04-06T11:22:28.322Z,1016.52
2017-04-06T11:23:28.259Z,1016.52
2017-04-06T11:24:28.197Z,1016.53
2017-04-06T11:25:28.137Z,1016.57
2017-04-06T11:26:28.076Z,1016.6
2017-04-06T11:27:28.010Z,1016.61
2017-04-06T11:28:27.950Z,1016.59
2017-04-06T11:29:27.886Z,1016.53
2017-04-06T11:30:27.824Z,1016.57
2017-04-06T11:31:27.761Z,1016.51
2017-04-06T11:32:27.700Z,1016.43
2017-04-06T11:33:27.637Z,1016.43
2017-04-06T11:34:27.575Z,1016.42
2017-04-06T11:35:27.513Z,1016.34
2017-04-06T11:36:27.451Z,1016.37
2017-04-06T11:37:27.388Z,1016.37
2017-04-06T11:38:27.329Z,1016.36
2017-04-06T11:39:27.268Z,1016.39
2017-04-06T11:40:27.204Z,1016.44
2017-04-06T11:41:27.141Z,1016.38
2017-04-06T11:42:27.081Z,1016.44
2017-04-06T11:43:27.018Z,1016.44
2017-04-06T11:44:26.956Z,1016.56
2017-04-06T11:45:26.893Z,1016.52
2017-04-06T11:46:26.833Z,1016.45
2017-04-06T11:47:26.773Z,1016.55
2017-04-06T11:48:26.708Z,1016.5
2017-04-06T11:49:26.662Z,1016.44
2017-04-06T11:50:26.585Z,1016.38
2017-04-06T11:51:26.523Z,1016.45
2017-04-06T11:52:26.461Z,1016.49
2017-04-06T11:53:26.398Z,1016.41
2017-04-06T11:54:26.343Z,1016.46
2017-04-06T11:55:26.275Z,1016.37
2017-04-06T11:56:26.213Z,1016.49
2017-04-06T11:57:26.151Z,1016.49
2017-04-06T11:58:26.089Z,1016.56
2017-04-06T11:59:26.036Z,1016.51
2017-04-06T12:00:25.964Z,1016.55
2017-04-06T12:01:25.902Z,1016.51
2017-04-06T12:02:25.840Z,1016.53
2017-04-06T12:03:25.777Z,1016.54
2017-04-06T12:04:25.716Z,1016.47
2017-04-06T12:05:25.654Z,1016.44
2017-04-06T12:06:25.600Z,1016.46
2017-04-06T12:07:25.530Z,1016.47
2017-04-06T12:08:25.470Z,1016.31